Historique des mesures à Cassis (13260), France
Quotidien Résumé Aout 5, 2020 Unités:  Métrique    US   Métrique/US
Quotidien Hebdomadaire Mensuel Annuel
  Maximum: Minimum: Moyenne:
Température: 28.3 °C 17.7 °C 22 °C
Point de rosée: 16.8 °C 11.4 °C 14.3 °C
Humidité: 79% 44% 62%
Vitesse du vent: 20.5km/h 0km/h 4.2km/h
Rafales: 31.7km/h - -
Vent- - West
Pression: 1020.4 hPa 1013.6 hPa -
Précipitations: 0.0 mm    
Historical Graphs
 
 
Mesures pour : Aout 5, 2020
Heure Temperature Point de rosée Pression Vent Vitesse du vent Rafales Humidité Pluie (par heure)
00:12 19 °C 12 °C 1020.4 hPa Calm   3.2 km/h 64% 0.0 mm
01:11 18.8 °C 11.4 °C 1020.2 hPa Calm   2.2 km/h 62% 0.0 mm
02:12 18.9 °C 12.8 °C 1020.2 hPa Calm     68% 0.0 mm
03:12 18.5 °C 12.2 °C 1019.6 hPa Calm   1.1 km/h 67% 0.0 mm
04:11 18.1 °C 11.9 °C 1019.1 hPa Calm   1.8 km/h 67% 0.0 mm
05:12 17.9 °C 12.4 °C 1018.5 hPa Calm   2.9 km/h 70% 0.0 mm
06:11 18.1 °C 12.6 °C 1018.4 hPa Calm   1.1 km/h 70% 0.0 mm
07:12 17.7 °C 12.4 °C 1018.3 hPa Calm   4 km/h 71% 0.0 mm
08:11 20.3 °C 13.2 °C 1017.9 hPa Calm   1.4 km/h 64% 0.0 mm
09:11 20.8 °C 14 °C 1018.1 hPa Calm   3.6 km/h 65% 0.0 mm
10:11 21.6 °C 14.5 °C 1018.1 hPa Calm   8.3 km/h 64% 0.0 mm
11:12 24.2 °C 16.5 °C 1017.9 hPa SE 5 km/h 10.4 km/h 62% 0.0 mm
12:12 26.8 °C 15.5 °C 1017.3 hPa WSW 2.2 km/h 6.5 km/h 50% 0.0 mm
13:11 28.3 °C 14.8 °C 1016.3 hPa WSW 3.6 km/h 8.6 km/h 44% 0.0 mm
14:12 26.9 °C 13.9 °C 1015.8 hPa West 11.9 km/h 23.4 km/h 45% 0.0 mm
15:11 26.4 °C 14.8 °C 1015.3 hPa WNW 20.5 km/h 25.6 km/h 49% 0.0 mm
16:11 25.9 °C 15.6 °C 1014.4 hPa NW 12.2 km/h 27.7 km/h 53% 0.0 mm
17:12 26.1 °C 15.8 °C 1014.0 hPa WNW 13 km/h 31.7 km/h 53% 0.0 mm
18:12 25.2 °C 15.5 °C 1013.7 hPa WNW 11.9 km/h 31.3 km/h 55% 0.0 mm
19:11 24.2 °C 15.7 °C 1013.6 hPa Calm   16.9 km/h 59% 0.0 mm
20:12 22.3 °C 16.4 °C 1013.6 hPa WNW 4 km/h 20.5 km/h 69% 0.0 mm
21:11 21.3 °C 16.4 °C 1013.7 hPa West 5.8 km/h 10.4 km/h 74% 0.0 mm
22:11 20.9 °C 16.1 °C 1013.9 hPa South 6.5 km/h 6.5 km/h 74% 0.0 mm
23:11 20.6 °C 16.8 °C 1013.9 hPa WNW 3.6 km/h 10.4 km/h 79% 0.0 mm
Observations météo à CASSIS
WU-History script by Weather Underground - 2 mb